sensor_id;sensor_type;location;lat;lon;timestamp;pressure;altitude;pressure_sealevel;temperature;humidity
75852;BME280;64500;52.632;20.656;2023-07-20T00:01:14;99712.02;;;23.74;44.57
75852;BME280;64500;52.632;20.656;2023-07-20T00:04:11;99706.59;;;23.76;44.72
75852;BME280;64500;52.632;20.656;2023-07-20T00:06:45;99710.56;;;23.82;44.64
75852;BME280;64500;52.632;20.656;2023-07-20T00:09:15;99706.64;;;23.89;44.86
75852;BME280;64500;52.632;20.656;2023-07-20T00:11:56;99709.06;;;23.97;44.82
75852;BME280;64500;52.632;20.656;2023-07-20T00:14:23;99712.09;;;24.03;44.76
75852;BME280;64500;52.632;20.656;2023-07-20T00:16:58;99717.99;;;24.00;44.79
75852;BME280;64500;52.632;20.656;2023-07-20T00:19:28;99727.36;;;23.90;44.68
75852;BME280;64500;52.632;20.656;2023-07-20T00:21:58;99727.69;;;23.84;44.69
75852;BME280;64500;52.632;20.656;2023-07-20T00:24:31;99723.93;;;23.86;44.96
75852;BME280;64500;52.632;20.656;2023-07-20T00:27:04;99716.98;;;23.89;44.97
75852;BME280;64500;52.632;20.656;2023-07-20T00:29:47;99713.70;;;23.89;45.12
75852;BME280;64500;52.632;20.656;2023-07-20T00:32:17;99706.20;;;23.90;44.91
75852;BME280;64500;52.632;20.656;2023-07-20T00:34:50;99698.97;;;23.83;44.96
75852;BME280;64500;52.632;20.656;2023-07-20T00:37:38;99696.44;;;23.84;44.94
75852;BME280;64500;52.632;20.656;2023-07-20T00:40:15;99695.33;;;23.89;44.94
75852;BME280;64500;52.632;20.656;2023-07-20T00:42:50;99700.28;;;23.98;45.21
75852;BME280;64500;52.632;20.656;2023-07-20T00:45:24;99694.67;;;24.02;45.20
75852;BME280;64500;52.632;20.656;2023-07-20T00:47:55;99689.20;;;24.06;45.19
75852;BME280;64500;52.632;20.656;2023-07-20T00:50:27;99677.03;;;24.01;45.10
75852;BME280;64500;52.632;20.656;2023-07-20T00:53:05;99670.95;;;23.97;45.01
75852;BME280;64500;52.632;20.656;2023-07-20T00:55:32;99669.61;;;23.94;44.94
75852;BME280;64500;52.632;20.656;2023-07-20T00:58:16;99669.80;;;23.92;45.10
75852;BME280;64500;52.632;20.656;2023-07-20T01:00:44;99664.05;;;23.89;45.02
75852;BME280;64500;52.632;20.656;2023-07-20T01:03:14;99667.31;;;23.85;45.18
75852;BME280;64500;52.632;20.656;2023-07-20T01:05:51;99665.21;;;23.77;44.89
75852;BME280;64500;52.632;20.656;2023-07-20T01:11:54;99666.69;;;23.50;45.00
75852;BME280;64500;52.632;20.656;2023-07-20T01:14:25;99677.55;;;23.31;45.12
75852;BME280;64500;52.632;20.656;2023-07-20T01:16:52;99677.85;;;23.21;45.19
75852;BME280;64500;52.632;20.656;2023-07-20T01:19:19;99674.14;;;23.20;45.21
75852;BME280;64500;52.632;20.656;2023-07-20T01:21:59;99679.81;;;23.20;45.31
75852;BME280;64500;52.632;20.656;2023-07-20T01:24:41;99681.38;;;23.20;45.51
75852;BME280;64500;52.632;20.656;2023-07-20T01:30:21;99684.94;;;23.07;45.71
75852;BME280;64500;52.632;20.656;2023-07-20T01:32:54;99681.58;;;23.06;45.69
75852;BME280;64500;52.632;20.656;2023-07-20T01:35:26;99687.16;;;23.06;45.65
75852;BME280;64500;52.632;20.656;2023-07-20T01:38:01;99685.45;;;23.05;45.76
75852;BME280;64500;52.632;20.656;2023-07-20T01:40:33;99686.70;;;23.05;45.79
75852;BME280;64500;52.632;20.656;2023-07-20T01:43:02;99682.02;;;23.05;45.95
75852;BME280;64500;52.632;20.656;2023-07-20T01:45:33;99683.13;;;23.07;46.04
75852;BME280;64500;52.632;20.656;2023-07-20T01:48:00;99684.71;;;23.07;46.01
75852;BME280;64500;52.632;20.656;2023-07-20T01:50:27;99689.95;;;23.07;46.07
75852;BME280;64500;52.632;20.656;2023-07-20T01:52:58;99689.91;;;23.03;46.02
75852;BME280;64500;52.632;20.656;2023-07-20T01:55:28;99692.63;;;22.96;46.09
75852;BME280;64500;52.632;20.656;2023-07-20T01:58:05;99703.09;;;22.92;46.18
75852;BME280;64500;52.632;20.656;2023-07-20T02:00:33;99704.40;;;22.92;46.29
75852;BME280;64500;52.632;20.656;2023-07-20T02:03:01;99704.66;;;22.99;46.55
75852;BME280;64500;52.632;20.656;2023-07-20T02:05:28;99705.06;;;23.07;46.54
75852;BME280;64500;52.632;20.656;2023-07-20T02:07:56;99694.02;;;23.14;46.63
75852;BME280;64500;52.632;20.656;2023-07-20T02:10:23;99688.52;;;23.17;46.56
75852;BME280;64500;52.632;20.656;2023-07-20T02:15:31;99679.96;;;23.16;46.50
75852;BME280;64500;52.632;20.656;2023-07-20T02:17:58;99671.95;;;23.17;46.47
75852;BME280;64500;52.632;20.656;2023-07-20T02:20:25;99669.79;;;23.17;46.38
75852;BME280;64500;52.632;20.656;2023-07-20T02:23:04;99678.52;;;23.18;46.20
75852;BME280;64500;52.632;20.656;2023-07-20T02:25:44;99684.55;;;23.13;46.28
75852;BME280;64500;52.632;20.656;2023-07-20T02:28:15;99681.02;;;23.02;46.41
75852;BME280;64500;52.632;20.656;2023-07-20T02:30:51;99686.45;;;22.85;46.66
75852;BME280;64500;52.632;20.656;2023-07-20T02:33:21;99684.91;;;22.77;47.02
75852;BME280;64500;52.632;20.656;2023-07-20T02:35:49;99680.19;;;22.82;46.97
75852;BME280;64500;52.632;20.656;2023-07-20T02:38:16;99680.75;;;22.86;46.95
75852;BME280;64500;52.632;20.656;2023-07-20T02:40:43;99685.94;;;22.93;46.86
75852;BME280;64500;52.632;20.656;2023-07-20T02:43:10;99687.16;;;22.95;46.88
75852;BME280;64500;52.632;20.656;2023-07-20T02:45:41;99688.74;;;22.96;46.98
75852;BME280;64500;52.632;20.656;2023-07-20T02:48:12;99681.09;;;23.01;46.85
75852;BME280;64500;52.632;20.656;2023-07-20T02:50:59;99682.03;;;23.07;46.77
75852;BME280;64500;52.632;20.656;2023-07-20T02:53:26;99681.56;;;23.08;46.79
75852;BME280;64500;52.632;20.656;2023-07-20T02:55:53;99681.35;;;23.06;46.83
75852;BME280;64500;52.632;20.656;2023-07-20T02:58:41;99673.24;;;23.06;46.78
75852;BME280;64500;52.632;20.656;2023-07-20T03:01:12;99673.60;;;23.10;46.97
75852;BME280;64500;52.632;20.656;2023-07-20T03:03:52;99680.34;;;23.10;46.85
75852;BME280;64500;52.632;20.656;2023-07-20T03:06:32;99681.47;;;23.05;46.84
75852;BME280;64500;52.632;20.656;2023-07-20T03:09:09;99680.11;;;23.08;46.81
75852;BME280;64500;52.632;20.656;2023-07-20T03:11:36;99679.23;;;23.06;46.74
75852;BME280;64500;52.632;20.656;2023-07-20T03:14:03;99687.54;;;23.04;46.75
75852;BME280;64500;52.632;20.656;2023-07-20T03:19:23;99700.96;;;23.03;46.91
75852;BME280;64500;52.632;20.656;2023-07-20T03:21:50;99695.93;;;23.00;47.06
75852;BME280;64500;52.632;20.656;2023-07-20T03:24:17;99700.42;;;23.03;47.01
75852;BME280;64500;52.632;20.656;2023-07-20T03:26:45;99698.80;;;23.03;47.04
75852;BME280;64500;52.632;20.656;2023-07-20T03:31:52;99705.52;;;23.10;46.86
75852;BME280;64500;52.632;20.656;2023-07-20T03:34:35;99705.52;;;23.12;46.85
75852;BME280;64500;52.632;20.656;2023-07-20T03:37:20;99703.11;;;23.15;46.93
75852;BME280;64500;52.632;20.656;2023-07-20T03:39:48;99699.70;;;23.23;46.98
75852;BME280;64500;52.632;20.656;2023-07-20T03:42:19;99702.55;;;23.28;46.90
75852;BME280;64500;52.632;20.656;2023-07-20T03:45:27;99705.58;;;23.30;46.76
75852;BME280;64500;52.632;20.656;2023-07-20T03:48:01;99707.45;;;23.32;46.84
75852;BME280;64500;52.632;20.656;2023-07-20T03:50:54;99713.48;;;23.27;47.13
75852;BME280;64500;52.632;20.656;2023-07-20T03:56:12;99715.49;;;23.33;47.08
75852;BME280;64500;52.632;20.656;2023-07-20T03:58:40;99719.18;;;23.34;47.17
75852;BME280;64500;52.632;20.656;2023-07-20T04:01:07;99728.09;;;23.35;47.27
75852;BME280;64500;52.632;20.656;2023-07-20T04:03:40;99734.08;;;23.40;47.08
75852;BME280;64500;52.632;20.656;2023-07-20T04:06:13;99735.36;;;23.42;47.21
75852;BME280;64500;52.632;20.656;2023-07-20T04:08:48;99738.05;;;23.44;47.07
75852;BME280;64500;52.632;20.656;2023-07-20T04:11:17;99748.23;;;23.48;47.16
75852;BME280;64500;52.632;20.656;2023-07-20T04:13:50;99749.23;;;23.49;47.33
75852;BME280;64500;52.632;20.656;2023-07-20T04:16:23;99755.30;;;23.50;47.14
75852;BME280;64500;52.632;20.656;2023-07-20T04:19:11;99757.33;;;23.49;47.35
75852;BME280;64500;52.632;20.656;2023-07-20T04:21:44;99759.80;;;23.49;47.30
75852;BME280;64500;52.632;20.656;2023-07-20T04:24:12;99760.95;;;23.47;47.43
75852;BME280;64500;52.632;20.656;2023-07-20T04:26:45;99765.52;;;23.48;47.45
75852;BME280;64500;52.632;20.656;2023-07-20T04:32:19;99773.52;;;23.47;47.49
75852;BME280;64500;52.632;20.656;2023-07-20T04:35:00;99773.89;;;23.55;47.66
75852;BME280;64500;52.632;20.656;2023-07-20T04:37:28;99774.30;;;23.63;47.51
75852;BME280;64500;52.632;20.656;2023-07-20T04:39:55;99775.23;;;23.78;47.57
75852;BME280;64500;52.632;20.656;2023-07-20T04:42:22;99779.20;;;23.87;47.50
75852;BME280;64500;52.632;20.656;2023-07-20T04:45:13;99785.54;;;23.91;47.48
75852;BME280;64500;52.632;20.656;2023-07-20T04:47:51;99791.59;;;23.96;47.45
75852;BME280;64500;52.632;20.656;2023-07-20T04:50:18;99794.44;;;23.98;47.35
75852;BME280;64500;52.632;20.656;2023-07-20T04:52:49;99798.79;;;23.94;47.22
75852;BME280;64500;52.632;20.656;2023-07-20T05:00:44;99812.76;;;23.75;47.39
75852;BME280;64500;52.632;20.656;2023-07-20T05:03:15;99814.21;;;23.75;47.22
75852;BME280;64500;52.632;20.656;2023-07-20T05:06:07;99811.98;;;23.55;47.27
75852;BME280;64500;52.632;20.656;2023-07-20T05:08:34;99814.51;;;23.40;47.10
75852;BME280;64500;52.632;20.656;2023-07-20T05:11:07;99817.30;;;23.31;47.24
75852;BME280;64500;52.632;20.656;2023-07-20T05:13:50;99818.96;;;23.12;48.06
75852;BME280;64500;52.632;20.656;2023-07-20T05:16:20;99818.96;;;22.93;50.07
75852;BME280;64500;52.632;20.656;2023-07-20T05:18:47;99811.48;;;22.83;50.89
75852;BME280;64500;52.632;20.656;2023-07-20T05:21:14;99807.86;;;22.92;51.35
75852;BME280;64500;52.632;20.656;2023-07-20T05:23:53;99810.13;;;23.07;51.33
75852;BME280;64500;52.632;20.656;2023-07-20T05:26:20;99802.06;;;23.17;51.41
75852;BME280;64500;52.632;20.656;2023-07-20T05:32:04;99811.73;;;23.43;51.76
75852;BME280;64500;52.632;20.656;2023-07-20T05:34:42;99819.68;;;23.39;51.26
75852;BME280;64500;52.632;20.656;2023-07-20T05:37:34;99815.33;;;23.39;51.48
75852;BME280;64500;52.632;20.656;2023-07-20T05:40:05;99810.39;;;23.48;51.82
75852;BME280;64500;52.632;20.656;2023-07-20T05:42:33;99806.13;;;23.58;51.95
75852;BME280;64500;52.632;20.656;2023-07-20T05:45:07;99809.60;;;23.70;51.93
75852;BME280;64500;52.632;20.656;2023-07-20T05:47:34;99807.20;;;23.73;51.64
75852;BME280;64500;52.632;20.656;2023-07-20T05:50:01;99805.72;;;23.80;52.02
75852;BME280;64500;52.632;20.656;2023-07-20T05:52:28;99806.77;;;23.86;52.30
75852;BME280;64500;52.632;20.656;2023-07-20T05:54:55;99809.75;;;23.99;52.59
75852;BME280;64500;52.632;20.656;2023-07-20T05:57:26;99812.17;;;24.16;52.58
75852;BME280;64500;52.632;20.656;2023-07-20T05:59:54;99804.42;;;24.26;52.47
75852;BME280;64500;52.632;20.656;2023-07-20T06:02:45;99803.48;;;24.30;52.41
75852;BME280;64500;52.632;20.656;2023-07-20T06:05:50;99796.93;;;24.33;52.24
75852;BME280;64500;52.632;20.656;2023-07-20T06:08:26;99801.59;;;24.32;52.31
75852;BME280;64500;52.632;20.656;2023-07-20T06:11:08;99797.29;;;24.25;52.11
75852;BME280;64500;52.632;20.656;2023-07-20T06:13:48;99791.48;;;24.26;52.29
75852;BME280;64500;52.632;20.656;2023-07-20T06:16:18;99791.36;;;24.17;52.25
75852;BME280;64500;52.632;20.656;2023-07-20T06:18:47;99794.80;;;24.02;52.06
75852;BME280;64500;52.632;20.656;2023-07-20T06:21:15;99794.86;;;24.02;52.23
75852;BME280;64500;52.632;20.656;2023-07-20T06:23:42;99793.14;;;24.09;52.37
75852;BME280;64500;52.632;20.656;2023-07-20T06:26:10;99793.10;;;24.18;52.59
75852;BME280;64500;52.632;20.656;2023-07-20T06:28:50;99793.11;;;24.23;52.46
75852;BME280;64500;52.632;20.656;2023-07-20T06:31:51;99792.63;;;24.43;52.12
75852;BME280;64500;52.632;20.656;2023-07-20T06:34:26;99796.58;;;24.57;52.35
75852;BME280;64500;52.632;20.656;2023-07-20T06:39:47;99793.54;;;24.72;51.97
75852;BME280;64500;52.632;20.656;2023-07-20T06:42:16;99794.02;;;24.83;52.02
75852;BME280;64500;52.632;20.656;2023-07-20T06:44:53;99781.40;;;24.94;52.07
75852;BME280;64500;52.632;20.656;2023-07-20T06:47:33;99777.63;;;25.02;51.94
75852;BME280;64500;52.632;20.656;2023-07-20T06:50:12;99790.28;;;24.95;51.53
75852;BME280;64500;52.632;20.656;2023-07-20T06:52:44;99793.33;;;25.10;52.10
75852;BME280;64500;52.632;20.656;2023-07-20T06:58:24;99799.82;;;25.46;51.79
75852;BME280;64500;52.632;20.656;2023-07-20T07:00:59;99800.27;;;25.57;51.77
75852;BME280;64500;52.632;20.656;2023-07-20T07:06:27;99800.40;;;25.63;50.94
75852;BME280;64500;52.632;20.656;2023-07-20T07:09:03;99797.24;;;25.63;50.95
75852;BME280;64500;52.632;20.656;2023-07-20T07:12:02;99796.48;;;25.69;51.09
75852;BME280;64500;52.632;20.656;2023-07-20T07:14:48;99797.75;;;25.78;50.94
75852;BME280;64500;52.632;20.656;2023-07-20T07:17:16;99807.06;;;25.78;50.94
75852;BME280;64500;52.632;20.656;2023-07-20T07:19:49;99804.05;;;25.79;50.64
75852;BME280;64500;52.632;20.656;2023-07-20T07:22:23;99800.54;;;25.78;50.43
75852;BME280;64500;52.632;20.656;2023-07-20T07:25:01;99799.56;;;25.79;50.05
75852;BME280;64500;52.632;20.656;2023-07-20T07:27:32;99803.27;;;25.74;50.01
75852;BME280;64500;52.632;20.656;2023-07-20T07:33:05;99805.52;;;25.68;49.47
75852;BME280;64500;52.632;20.656;2023-07-20T07:35:45;99804.59;;;25.62;49.42
75852;BME280;64500;52.632;20.656;2023-07-20T07:38:15;99807.52;;;25.56;49.40
75852;BME280;64500;52.632;20.656;2023-07-20T07:40:49;99808.95;;;25.47;49.48
75852;BME280;64500;52.632;20.656;2023-07-20T07:43:22;99811.09;;;25.48;50.07
75852;BME280;64500;52.632;20.656;2023-07-20T07:45:54;99808.37;;;25.50;50.57
75852;BME280;64500;52.632;20.656;2023-07-20T07:48:22;99808.36;;;25.53;51.02
75852;BME280;64500;52.632;20.656;2023-07-20T07:50:53;99813.11;;;25.70;50.87
75852;BME280;64500;52.632;20.656;2023-07-20T07:53:20;99819.64;;;25.75;50.38
75852;BME280;64500;52.632;20.656;2023-07-20T07:55:48;99827.45;;;25.66;50.06
75852;BME280;64500;52.632;20.656;2023-07-20T07:58:18;99831.08;;;25.51;49.66
75852;BME280;64500;52.632;20.656;2023-07-20T08:00:49;99831.29;;;25.82;51.04
75852;BME280;64500;52.632;20.656;2023-07-20T08:03:19;99825.12;;;26.47;51.62
75852;BME280;64500;52.632;20.656;2023-07-20T08:06:19;99826.87;;;26.89;50.86
75852;BME280;64500;52.632;20.656;2023-07-20T08:11:32;99833.87;;;27.03;50.65
75852;BME280;64500;52.632;20.656;2023-07-20T08:14:12;99842.67;;;27.53;50.99
75852;BME280;64500;52.632;20.656;2023-07-20T08:16:39;99844.46;;;28.12;50.50
75852;BME280;64500;52.632;20.656;2023-07-20T08:19:17;99835.58;;;28.68;50.09
75852;BME280;64500;52.632;20.656;2023-07-20T08:21:55;99834.73;;;29.09;49.34
75852;BME280;64500;52.632;20.656;2023-07-20T08:24:28;99840.17;;;29.52;48.76
75852;BME280;64500;52.632;20.656;2023-07-20T08:26:58;99838.11;;;29.91;48.96
75852;BME280;64500;52.632;20.656;2023-07-20T08:29:52;99841.77;;;29.95;47.12
75852;BME280;64500;52.632;20.656;2023-07-20T08:35:37;99850.63;;;30.22;47.32
75852;BME280;64500;52.632;20.656;2023-07-20T08:38:14;99854.80;;;30.24;46.23
75852;BME280;64500;52.632;20.656;2023-07-20T08:40:43;99861.27;;;30.39;46.37
75852;BME280;64500;52.632;20.656;2023-07-20T08:43:20;99860.88;;;30.58;46.30
75852;BME280;64500;52.632;20.656;2023-07-20T08:45:54;99863.35;;;30.71;45.90
75852;BME280;64500;52.632;20.656;2023-07-20T08:48:27;99864.70;;;30.85;46.14
75852;BME280;64500;52.632;20.656;2023-07-20T08:51:13;99865.36;;;30.82;44.92
75852;BME280;64500;52.632;20.656;2023-07-20T08:53:51;99864.15;;;30.50;44.28
75852;BME280;64500;52.632;20.656;2023-07-20T08:59:16;99862.91;;;30.15;44.40
75852;BME280;64500;52.632;20.656;2023-07-20T09:01:59;99864.84;;;30.19;44.38
75852;BME280;64500;52.632;20.656;2023-07-20T09:04:30;99865.20;;;30.32;44.19
75852;BME280;64500;52.632;20.656;2023-07-20T09:07:23;99869.33;;;30.40;44.27
75852;BME280;64500;52.632;20.656;2023-07-20T09:12:47;99854.15;;;30.37;44.03
75852;BME280;64500;52.632;20.656;2023-07-20T09:15:24;99858.64;;;30.58;44.09
75852;BME280;64500;52.632;20.656;2023-07-20T09:21:05;99852.80;;;31.27;43.40
75852;BME280;64500;52.632;20.656;2023-07-20T09:23:47;99852.92;;;31.42;43.27
75852;BME280;64500;52.632;20.656;2023-07-20T09:26:35;99855.32;;;31.57;43.03
75852;BME280;64500;52.632;20.656;2023-07-20T09:29:48;99859.86;;;31.78;43.12
75852;BME280;64500;52.632;20.656;2023-07-20T09:35:52;99859.33;;;32.30;42.66
75852;BME280;64500;52.632;20.656;2023-07-20T09:38:35;99859.27;;;32.40;41.76
75852;BME280;64500;52.632;20.656;2023-07-20T09:41:29;99856.98;;;32.57;41.55
75852;BME280;64500;52.632;20.656;2023-07-20T09:44:19;99857.83;;;32.71;41.11
75852;BME280;64500;52.632;20.656;2023-07-20T09:47:24;99857.13;;;32.69;40.78
75852;BME280;64500;52.632;20.656;2023-07-20T09:50:06;99865.67;;;32.50;40.14
75852;BME280;64500;52.632;20.656;2023-07-20T09:52:54;99861.97;;;32.36;40.30
75852;BME280;64500;52.632;20.656;2023-07-20T09:55:29;99861.92;;;32.70;40.69
75852;BME280;64500;52.632;20.656;2023-07-20T09:58:05;99865.50;;;33.11;40.61
75852;BME280;64500;52.632;20.656;2023-07-20T10:01:06;99869.09;;;33.65;40.26
75852;BME280;64500;52.632;20.656;2023-07-20T10:03:57;99869.87;;;33.97;39.56
75852;BME280;64500;52.632;20.656;2023-07-20T10:09:48;99857.27;;;35.51;39.15
75852;BME280;64500;52.632;20.656;2023-07-20T10:12:37;99864.19;;;36.47;38.81
75852;BME280;64500;52.632;20.656;2023-07-20T10:15:50;99859.44;;;37.07;37.85
75852;BME280;64500;52.632;20.656;2023-07-20T10:18:54;99854.46;;;37.54;36.86
75852;BME280;64500;52.632;20.656;2023-07-20T10:21:30;99854.99;;;37.63;35.73
75852;BME280;64500;52.632;20.656;2023-07-20T10:24:03;99860.96;;;37.38;35.00
75852;BME280;64500;52.632;20.656;2023-07-20T10:27:13;99862.66;;;36.93;33.96
75852;BME280;64500;52.632;20.656;2023-07-20T10:29:51;99863.60;;;36.77;34.09
75852;BME280;64500;52.632;20.656;2023-07-20T10:35:23;99863.52;;;36.98;34.09
75852;BME280;64500;52.632;20.656;2023-07-20T10:38:03;99858.77;;;36.99;33.42
75852;BME280;64500;52.632;20.656;2023-07-20T10:40:45;99856.46;;;36.98;33.59
75852;BME280;64500;52.632;20.656;2023-07-20T10:43:50;99849.04;;;36.65;31.87
75852;BME280;64500;52.632;20.656;2023-07-20T10:49:25;99834.96;;;36.26;32.52
75852;BME280;64500;52.632;20.656;2023-07-20T10:51:59;99833.05;;;36.13;32.09
75852;BME280;64500;52.632;20.656;2023-07-20T10:57:33;99831.76;;;35.95;31.94
75852;BME280;64500;52.632;20.656;2023-07-20T11:00:24;99826.42;;;35.74;31.57
75852;BME280;64500;52.632;20.656;2023-07-20T11:05:43;99825.46;;;35.06;31.27
75852;BME280;64500;52.632;20.656;2023-07-20T11:08:12;99825.51;;;35.10;32.29
75852;BME280;64500;52.632;20.656;2023-07-20T11:10:40;99822.73;;;35.09;32.08
75852;BME280;64500;52.632;20.656;2023-07-20T11:13:21;99823.20;;;35.44;31.99
75852;BME280;64500;52.632;20.656;2023-07-20T11:18:26;99816.63;;;35.50;31.29
75852;BME280;64500;52.632;20.656;2023-07-20T11:20:54;99814.86;;;35.56;31.74
75852;BME280;64500;52.632;20.656;2023-07-20T11:23:22;99815.77;;;35.75;31.42
75852;BME280;64500;52.632;20.656;2023-07-20T11:25:50;99813.23;;;35.62;30.94
75852;BME280;64500;52.632;20.656;2023-07-20T11:28:17;99809.17;;;35.59;31.07
75852;BME280;64500;52.632;20.656;2023-07-20T11:30:44;99807.90;;;35.69;31.23
75852;BME280;64500;52.632;20.656;2023-07-20T11:33:12;99801.08;;;35.53;30.49
75852;BME280;64500;52.632;20.656;2023-07-20T11:35:45;99800.40;;;34.72;28.91
75852;BME280;64500;52.632;20.656;2023-07-20T11:38:16;99797.38;;;33.76;30.25
75852;BME280;64500;52.632;20.656;2023-07-20T11:40:44;99794.27;;;33.75;31.09
75852;BME280;64500;52.632;20.656;2023-07-20T11:43:13;99791.42;;;33.66;30.74
75852;BME280;64500;52.632;20.656;2023-07-20T11:45:41;99789.40;;;33.83;31.62
75852;BME280;64500;52.632;20.656;2023-07-20T11:48:15;99781.14;;;34.27;31.34
75852;BME280;64500;52.632;20.656;2023-07-20T11:50:43;99779.36;;;34.37;31.49
75852;BME280;64500;52.632;20.656;2023-07-20T11:53:10;99779.78;;;34.47;31.33
75852;BME280;64500;52.632;20.656;2023-07-20T11:55:39;99781.00;;;34.68;31.38
75852;BME280;64500;52.632;20.656;2023-07-20T11:58:09;99780.79;;;34.96;31.39
75852;BME280;64500;52.632;20.656;2023-07-20T12:00:38;99780.73;;;35.09;31.32
75852;BME280;64500;52.632;20.656;2023-07-20T12:03:09;99778.91;;;35.31;31.45
75852;BME280;64500;52.632;20.656;2023-07-20T12:05:38;99783.88;;;35.64;31.10
75852;BME280;64500;52.632;20.656;2023-07-20T12:08:06;99784.12;;;36.08;30.96
75852;BME280;64500;52.632;20.656;2023-07-20T12:10:38;99781.11;;;36.46;30.53
75852;BME280;64500;52.632;20.656;2023-07-20T12:13:20;99785.70;;;36.67;30.07
75852;BME280;64500;52.632;20.656;2023-07-20T12:16:00;99780.89;;;36.73;29.49
75852;BME280;64500;52.632;20.656;2023-07-20T12:18:47;99779.65;;;36.69;29.27
75852;BME280;64500;52.632;20.656;2023-07-20T12:21:46;99776.98;;;36.96;29.12
75852;BME280;64500;52.632;20.656;2023-07-20T12:24:30;99773.60;;;37.19;28.27
75852;BME280;64500;52.632;20.656;2023-07-20T12:27:13;99779.89;;;37.52;28.58
75852;BME280;64500;52.632;20.656;2023-07-20T12:32:50;99765.20;;;38.34;27.73
75852;BME280;64500;52.632;20.656;2023-07-20T12:35:25;99770.83;;;38.77;27.96
75852;BME280;64500;52.632;20.656;2023-07-20T12:37:58;99763.34;;;39.02;26.89
75852;BME280;64500;52.632;20.656;2023-07-20T12:40:40;99760.50;;;39.13;26.86
75852;BME280;64500;52.632;20.656;2023-07-20T12:43:22;99766.45;;;39.49;26.92
75852;BME280;64500;52.632;20.656;2023-07-20T12:46:09;99763.86;;;39.39;25.94
75852;BME280;64500;52.632;20.656;2023-07-20T12:48:56;99753.95;;;39.01;25.48
75852;BME280;64500;52.632;20.656;2023-07-20T12:51:34;99748.41;;;38.41;25.84
75852;BME280;64500;52.632;20.656;2023-07-20T12:57:03;99751.42;;;37.04;25.70
75852;BME280;64500;52.632;20.656;2023-07-20T13:05:35;99789.50;;;34.37;25.15
75852;BME280;64500;52.632;20.656;2023-07-20T13:08:07;99786.34;;;33.20;25.62
75852;BME280;64500;52.632;20.656;2023-07-20T13:14:08;99783.48;;;31.03;27.03
75852;BME280;64500;52.632;20.656;2023-07-20T13:17:00;99781.01;;;30.56;27.65
75852;BME280;64500;52.632;20.656;2023-07-20T13:20:26;99799.64;;;29.82;28.25
75852;BME280;64500;52.632;20.656;2023-07-20T13:23:09;99820.09;;;28.91;29.18
75852;BME280;64500;52.632;20.656;2023-07-20T13:31:27;99893.65;;;25.83;36.97
75852;BME280;64500;52.632;20.656;2023-07-20T13:55:49;99781.10;;;46.12;22.57
75852;BME280;64500;52.632;20.656;2023-07-20T14:05:05;99776.39;;;45.80;20.53
75852;BME280;64500;52.632;20.656;2023-07-20T14:08:26;79825.91;;;10.98;16.24
75852;BME280;64500;52.632;20.656;2023-07-20T14:11:26;-1.00;;;-128.00;-1.00
75852;BME280;64500;52.632;20.656;2023-07-20T14:20:44;-1.00;;;-128.00;-1.00
75852;BME280;64500;52.632;20.656;2023-07-20T14:24:14;82366.98;;;-24.95;30.93
75852;BME280;64500;52.632;20.656;2023-07-20T14:33:35;62532.05;;;-59.49;26.78
75852;BME280;64500;52.632;20.656;2023-07-20T14:39:31;79763.05;;;-21.74;29.44
75852;BME280;64500;52.632;20.656;2023-07-20T14:58:53;19948.55;;;-92.73;3.39
75852;BME280;64500;52.632;20.656;2023-07-20T15:02:04;-1.00;;;-128.00;-1.00
75852;BME280;64500;52.632;20.656;2023-07-20T15:05:00;19948.55;;;-131.56;19.20
75852;BME280;64500;52.632;20.656;2023-07-20T15:13:49;-1.00;;;-128.00;-1.00
75852;BME280;64500;52.632;20.656;2023-07-20T15:17:31;-1.00;;;-128.00;-1.00
75852;BME280;64500;52.632;20.656;2023-07-20T15:20:04;-1.00;;;-128.00;-1.00
75852;BME280;64500;52.632;20.656;2023-07-20T15:27:02;-1.00;;;-128.00;-1.00
75852;BME280;64500;52.632;20.656;2023-07-20T15:46:51;-1.00;;;-128.00;-1.00
